sensor_id;sensor_type;location;lat;lon;timestamp;P1;durP1;ratioP1;P2;durP2;ratioP2
27127;SDS011;14660;49.008;8.390;2022-10-22T00:00:03;1.48;;;1.38;;
27127;SDS011;14660;49.008;8.390;2022-10-22T00:02:32;1.45;;;0.70;;
27127;SDS011;14660;49.008;8.390;2022-10-22T00:04:59;1.80;;;0.80;;
27127;SDS011;14660;49.008;8.390;2022-10-22T00:07:27;1.00;;;0.55;;
27127;SDS011;14660;49.008;8.390;2022-10-22T00:09:55;2.30;;;0.50;;
27127;SDS011;14660;49.008;8.390;2022-10-22T00:12:22;0.82;;;0.55;;
27127;SDS011;14660;49.008;8.390;2022-10-22T00:14:50;0.50;;;0.40;;
27127;SDS011;14660;49.008;8.390;2022-10-22T00:17:17;1.08;;;0.40;;
27127;SDS011;14660;49.008;8.390;2022-10-22T00:19:43;0.65;;;0.28;;
27127;SDS011;14660;49.008;8.390;2022-10-22T00:22:10;0.85;;;0.30;;
27127;SDS011;14660;49.008;8.390;2022-10-22T00:24:38;1.65;;;0.40;;
27127;SDS011;14660;49.008;8.390;2022-10-22T00:27:05;0.73;;;0.20;;
27127;SDS011;14660;49.008;8.390;2022-10-22T00:29:33;1.98;;;0.40;;
27127;SDS011;14660;49.008;8.390;2022-10-22T00:32:00;0.80;;;0.30;;
27127;SDS011;14660;49.008;8.390;2022-10-22T00:34:28;0.52;;;0.20;;
27127;SDS011;14660;49.008;8.390;2022-10-22T00:36:56;1.23;;;0.40;;
27127;SDS011;14660;49.008;8.390;2022-10-22T00:39:24;0.38;;;0.30;;
27127;SDS011;14660;49.008;8.390;2022-10-22T00:41:52;0.75;;;0.20;;
27127;SDS011;14660;49.008;8.390;2022-10-22T00:47:40;1.10;;;0.80;;
27127;SDS011;14660;49.008;8.390;2022-10-22T00:56:26;1.55;;;0.32;;
27127;SDS011;14660;49.008;8.390;2022-10-22T00:58:59;0.82;;;0.22;;
27127;SDS011;14660;49.008;8.390;2022-10-22T01:01:29;0.20;;;0.20;;
27127;SDS011;14660;49.008;8.390;2022-10-22T01:03:55;1.48;;;0.20;;
27127;SDS011;14660;49.008;8.390;2022-10-22T01:06:27;0.65;;;0.30;;
27127;SDS011;14660;49.008;8.390;2022-10-22T01:12:14;0.63;;;0.30;;
27127;SDS011;14660;49.008;8.390;2022-10-22T01:29:57;3.83;;;0.93;;
27127;SDS011;14660;49.008;8.390;2022-10-22T01:32:28;0.00;;;0.00;;
27127;SDS011;14660;49.008;8.390;2022-10-22T01:35:00;2.42;;;0.40;;
27127;SDS011;14660;49.008;8.390;2022-10-22T01:37:31;1.67;;;0.20;;
27127;SDS011;14660;49.008;8.390;2022-10-22T01:40:02;0.57;;;0.25;;
27127;SDS011;14660;49.008;8.390;2022-10-22T01:42:31;0.68;;;0.20;;
27127;SDS011;14660;49.008;8.390;2022-10-22T01:45:00;4.25;;;0.30;;
27127;SDS011;14660;49.008;8.390;2022-10-22T02:05:36;0.63;;;0.27;;
27127;SDS011;14660;49.008;8.390;2022-10-22T02:08:21;1.02;;;0.57;;
27127;SDS011;14660;49.008;8.390;2022-10-22T02:10:49;2.03;;;0.35;;
27127;SDS011;14660;49.008;8.390;2022-10-22T02:13:26;0.57;;;0.38;;
27127;SDS011;14660;49.008;8.390;2022-10-22T02:16:07;1.27;;;0.30;;
27127;SDS011;14660;49.008;8.390;2022-10-22T02:18:38;1.20;;;0.20;;
27127;SDS011;14660;49.008;8.390;2022-10-22T02:21:08;0.63;;;0.20;;
27127;SDS011;14660;49.008;8.390;2022-10-22T02:23:35;1.10;;;0.30;;
27127;SDS011;14660;49.008;8.390;2022-10-22T02:26:05;3.40;;;0.30;;
27127;SDS011;14660;49.008;8.390;2022-10-22T02:29:02;0.40;;;0.30;;
27127;SDS011;14660;49.008;8.390;2022-10-22T02:31:27;0.90;;;0.50;;
27127;SDS011;14660;49.008;8.390;2022-10-22T02:34:02;0.88;;;0.35;;
27127;SDS011;14660;49.008;8.390;2022-10-22T02:36:36;1.00;;;0.55;;
27127;SDS011;14660;49.008;8.390;2022-10-22T02:39:04;2.58;;;0.28;;
27127;SDS011;14660;49.008;8.390;2022-10-22T02:41:32;0.50;;;0.20;;
27127;SDS011;14660;49.008;8.390;2022-10-22T02:44:00;1.25;;;0.57;;
27127;SDS011;14660;49.008;8.390;2022-10-22T02:46:34;1.52;;;0.32;;
27127;SDS011;14660;49.008;8.390;2022-10-22T02:49:02;1.08;;;0.28;;
27127;SDS011;14660;49.008;8.390;2022-10-22T02:51:29;3.42;;;0.57;;
27127;SDS011;14660;49.008;8.390;2022-10-22T02:53:56;0.75;;;0.30;;
27127;SDS011;14660;49.008;8.390;2022-10-22T02:56:22;0.70;;;0.30;;
27127;SDS011;14660;49.008;8.390;2022-10-22T02:58:49;0.52;;;0.30;;
27127;SDS011;14660;49.008;8.390;2022-10-22T03:01:16;2.30;;;0.47;;
27127;SDS011;14660;49.008;8.390;2022-10-22T03:03:43;0.35;;;0.20;;
27127;SDS011;14660;49.008;8.390;2022-10-22T03:06:11;3.17;;;0.57;;
27127;SDS011;14660;49.008;8.390;2022-10-22T03:08:37;1.33;;;0.38;;
27127;SDS011;14660;49.008;8.390;2022-10-22T03:11:04;0.85;;;0.30;;
27127;SDS011;14660;49.008;8.390;2022-10-22T03:13:30;0.40;;;0.20;;
27127;SDS011;14660;49.008;8.390;2022-10-22T03:15:58;1.27;;;0.43;;
27127;SDS011;14660;49.008;8.390;2022-10-22T03:18:26;1.73;;;0.40;;
27127;SDS011;14660;49.008;8.390;2022-10-22T03:21:00;1.02;;;0.40;;
27127;SDS011;14660;49.008;8.390;2022-10-22T03:23:33;2.28;;;1.00;;
27127;SDS011;14660;49.008;8.390;2022-10-22T03:26:01;0.50;;;0.30;;
27127;SDS011;14660;49.008;8.390;2022-10-22T03:28:28;1.80;;;0.40;;
27127;SDS011;14660;49.008;8.390;2022-10-22T03:30:55;1.90;;;0.30;;
27127;SDS011;14660;49.008;8.390;2022-10-22T03:33:22;0.40;;;0.30;;
27127;SDS011;14660;49.008;8.390;2022-10-22T03:35:49;3.25;;;1.48;;
27127;SDS011;14660;49.008;8.390;2022-10-22T03:38:16;2.58;;;0.45;;
27127;SDS011;14660;49.008;8.390;2022-10-22T03:40:43;3.72;;;0.50;;
27127;SDS011;14660;49.008;8.390;2022-10-22T03:43:11;0.60;;;0.50;;
27127;SDS011;14660;49.008;8.390;2022-10-22T03:45:38;1.58;;;0.95;;
27127;SDS011;14660;49.008;8.390;2022-10-22T03:48:05;1.77;;;0.85;;
27127;SDS011;14660;49.008;8.390;2022-10-22T03:50:32;1.33;;;0.63;;
27127;SDS011;14660;49.008;8.390;2022-10-22T03:52:59;1.15;;;0.45;;
27127;SDS011;14660;49.008;8.390;2022-10-22T03:55:27;3.70;;;0.95;;
27127;SDS011;14660;49.008;8.390;2022-10-22T03:57:55;5.68;;;0.70;;
27127;SDS011;14660;49.008;8.390;2022-10-22T04:00:23;1.52;;;0.55;;
27127;SDS011;14660;49.008;8.390;2022-10-22T04:02:50;1.55;;;0.40;;
27127;SDS011;14660;49.008;8.390;2022-10-22T04:05:17;1.73;;;0.40;;
27127;SDS011;14660;49.008;8.390;2022-10-22T04:07:43;2.53;;;0.60;;
27127;SDS011;14660;49.008;8.390;2022-10-22T04:10:11;1.27;;;0.38;;
27127;SDS011;14660;49.008;8.390;2022-10-22T04:12:38;1.77;;;0.88;;
27127;SDS011;14660;49.008;8.390;2022-10-22T04:15:05;0.60;;;0.40;;
27127;SDS011;14660;49.008;8.390;2022-10-22T04:17:35;1.85;;;0.47;;
27127;SDS011;14660;49.008;8.390;2022-10-22T04:20:03;0.55;;;0.30;;
27127;SDS011;14660;49.008;8.390;2022-10-22T04:22:29;0.70;;;0.40;;
27127;SDS011;14660;49.008;8.390;2022-10-22T04:24:58;2.65;;;0.40;;
27127;SDS011;14660;49.008;8.390;2022-10-22T04:27:28;1.55;;;0.50;;
27127;SDS011;14660;49.008;8.390;2022-10-22T04:29:56;0.85;;;0.60;;
27127;SDS011;14660;49.008;8.390;2022-10-22T04:32:24;0.75;;;0.50;;
27127;SDS011;14660;49.008;8.390;2022-10-22T04:34:52;0.98;;;0.50;;
27127;SDS011;14660;49.008;8.390;2022-10-22T04:37:18;0.70;;;0.50;;
27127;SDS011;14660;49.008;8.390;2022-10-22T04:39:47;3.13;;;0.70;;
27127;SDS011;14660;49.008;8.390;2022-10-22T04:42:17;3.75;;;0.68;;
27127;SDS011;14660;49.008;8.390;2022-10-22T04:44:44;3.95;;;1.45;;
27127;SDS011;14660;49.008;8.390;2022-10-22T04:47:13;0.80;;;0.40;;
27127;SDS011;14660;49.008;8.390;2022-10-22T04:49:41;1.40;;;0.45;;
27127;SDS011;14660;49.008;8.390;2022-10-22T04:52:08;1.52;;;0.50;;
27127;SDS011;14660;49.008;8.390;2022-10-22T04:54:33;1.17;;;0.50;;
27127;SDS011;14660;49.008;8.390;2022-10-22T04:57:01;0.88;;;0.43;;
27127;SDS011;14660;49.008;8.390;2022-10-22T04:59:27;0.82;;;0.43;;
27127;SDS011;14660;49.008;8.390;2022-10-22T05:01:57;0.88;;;0.57;;
27127;SDS011;14660;49.008;8.390;2022-10-22T05:04:24;0.43;;;0.40;;
27127;SDS011;14660;49.008;8.390;2022-10-22T05:06:51;0.73;;;0.47;;
27127;SDS011;14660;49.008;8.390;2022-10-22T05:09:18;2.67;;;0.85;;
27127;SDS011;14660;49.008;8.390;2022-10-22T05:11:48;1.45;;;0.43;;
27127;SDS011;14660;49.008;8.390;2022-10-22T05:14:18;1.83;;;0.77;;
27127;SDS011;14660;49.008;8.390;2022-10-22T05:16:46;2.55;;;0.65;;
27127;SDS011;14660;49.008;8.390;2022-10-22T05:19:18;0.90;;;0.82;;
27127;SDS011;14660;49.008;8.390;2022-10-22T05:22:04;2.03;;;0.47;;
27127;SDS011;14660;49.008;8.390;2022-10-22T05:24:33;1.88;;;0.73;;
27127;SDS011;14660;49.008;8.390;2022-10-22T05:27:02;1.35;;;0.70;;
27127;SDS011;14660;49.008;8.390;2022-10-22T05:29:29;3.13;;;0.73;;
27127;SDS011;14660;49.008;8.390;2022-10-22T05:31:55;2.30;;;0.85;;
27127;SDS011;14660;49.008;8.390;2022-10-22T05:34:23;1.95;;;0.77;;
27127;SDS011;14660;49.008;8.390;2022-10-22T05:36:53;0.73;;;0.57;;
27127;SDS011;14660;49.008;8.390;2022-10-22T05:39:20;2.92;;;0.70;;
27127;SDS011;14660;49.008;8.390;2022-10-22T05:41:49;1.45;;;0.50;;
27127;SDS011;14660;49.008;8.390;2022-10-22T05:44:16;1.30;;;0.60;;
27127;SDS011;14660;49.008;8.390;2022-10-22T05:46:43;0.52;;;0.40;;
27127;SDS011;14660;49.008;8.390;2022-10-22T05:49:13;0.52;;;0.50;;
27127;SDS011;14660;49.008;8.390;2022-10-22T05:51:42;0.88;;;0.50;;
27127;SDS011;14660;49.008;8.390;2022-10-22T05:54:10;0.77;;;0.50;;
27127;SDS011;14660;49.008;8.390;2022-10-22T05:56:42;2.63;;;1.13;;
27127;SDS011;14660;49.008;8.390;2022-10-22T05:59:10;3.15;;;0.90;;
27127;SDS011;14660;49.008;8.390;2022-10-22T06:01:39;2.03;;;0.80;;
27127;SDS011;14660;49.008;8.390;2022-10-22T06:04:09;2.03;;;0.70;;
27127;SDS011;14660;49.008;8.390;2022-10-22T06:09:34;0.55;;;0.40;;
27127;SDS011;14660;49.008;8.390;2022-10-22T06:12:01;1.48;;;0.68;;
27127;SDS011;14660;49.008;8.390;2022-10-22T06:14:28;4.95;;;1.40;;
27127;SDS011;14660;49.008;8.390;2022-10-22T06:16:58;1.67;;;0.60;;
27127;SDS011;14660;49.008;8.390;2022-10-22T06:19:28;4.13;;;1.02;;
27127;SDS011;14660;49.008;8.390;2022-10-22T06:21:57;1.85;;;0.80;;
27127;SDS011;14660;49.008;8.390;2022-10-22T06:24:23;1.83;;;0.82;;
27127;SDS011;14660;49.008;8.390;2022-10-22T06:26:50;1.50;;;0.65;;
27127;SDS011;14660;49.008;8.390;2022-10-22T06:29:18;1.25;;;0.70;;
27127;SDS011;14660;49.008;8.390;2022-10-22T06:31:45;1.08;;;0.73;;
27127;SDS011;14660;49.008;8.390;2022-10-22T06:34:16;0.70;;;0.45;;
27127;SDS011;14660;49.008;8.390;2022-10-22T06:36:50;2.15;;;1.05;;
27127;SDS011;14660;49.008;8.390;2022-10-22T06:39:17;4.35;;;1.02;;
27127;SDS011;14660;49.008;8.390;2022-10-22T06:41:43;0.80;;;0.40;;
27127;SDS011;14660;49.008;8.390;2022-10-22T06:44:12;3.20;;;0.95;;
27127;SDS011;14660;49.008;8.390;2022-10-22T06:46:40;2.20;;;0.40;;
27127;SDS011;14660;49.008;8.390;2022-10-22T06:49:09;1.00;;;0.60;;
27127;SDS011;14660;49.008;8.390;2022-10-22T06:51:38;1.77;;;0.60;;
27127;SDS011;14660;49.008;8.390;2022-10-22T06:54:04;1.70;;;0.60;;
27127;SDS011;14660;49.008;8.390;2022-10-22T06:56:30;2.83;;;0.80;;
27127;SDS011;14660;49.008;8.390;2022-10-22T06:58:58;2.33;;;0.60;;
27127;SDS011;14660;49.008;8.390;2022-10-22T07:01:33;2.30;;;0.60;;
27127;SDS011;14660;49.008;8.390;2022-10-22T07:04:01;3.58;;;1.02;;
27127;SDS011;14660;49.008;8.390;2022-10-22T07:06:29;2.42;;;0.68;;
27127;SDS011;14660;49.008;8.390;2022-10-22T07:08:57;3.97;;;0.70;;
27127;SDS011;14660;49.008;8.390;2022-10-22T07:11:29;1.30;;;0.70;;
27127;SDS011;14660;49.008;8.390;2022-10-22T07:14:02;0.95;;;0.40;;
27127;SDS011;14660;49.008;8.390;2022-10-22T07:16:30;0.70;;;0.47;;
27127;SDS011;14660;49.008;8.390;2022-10-22T07:18:58;1.13;;;0.70;;
27127;SDS011;14660;49.008;8.390;2022-10-22T07:21:27;2.75;;;0.90;;
27127;SDS011;14660;49.008;8.390;2022-10-22T07:23:56;3.75;;;0.80;;
27127;SDS011;14660;49.008;8.390;2022-10-22T07:26:25;1.27;;;0.60;;
27127;SDS011;14660;49.008;8.390;2022-10-22T07:28:57;1.52;;;0.88;;
27127;SDS011;14660;49.008;8.390;2022-10-22T07:31:25;2.75;;;0.90;;
27127;SDS011;14660;49.008;8.390;2022-10-22T07:33:50;3.55;;;1.05;;
27127;SDS011;14660;49.008;8.390;2022-10-22T07:36:18;1.08;;;0.70;;
27127;SDS011;14660;49.008;8.390;2022-10-22T07:38:47;1.13;;;0.70;;
27127;SDS011;14660;49.008;8.390;2022-10-22T07:41:22;2.15;;;0.90;;
27127;SDS011;14660;49.008;8.390;2022-10-22T07:43:49;4.13;;;1.02;;
27127;SDS011;14660;49.008;8.390;2022-10-22T07:46:17;4.22;;;0.90;;
27127;SDS011;14660;49.008;8.390;2022-10-22T07:48:44;0.93;;;0.55;;
27127;SDS011;14660;49.008;8.390;2022-10-22T07:51:10;1.95;;;0.55;;
27127;SDS011;14660;49.008;8.390;2022-10-22T07:53:38;1.80;;;0.70;;
27127;SDS011;14660;49.008;8.390;2022-10-22T07:56:06;1.50;;;0.75;;
27127;SDS011;14660;49.008;8.390;2022-10-22T07:58:40;1.00;;;0.50;;
27127;SDS011;14660;49.008;8.390;2022-10-22T08:01:06;1.83;;;0.90;;
27127;SDS011;14660;49.008;8.390;2022-10-22T08:03:33;1.90;;;0.88;;
27127;SDS011;14660;49.008;8.390;2022-10-22T08:06:00;2.15;;;0.60;;
27127;SDS011;14660;49.008;8.390;2022-10-22T08:08:28;1.00;;;0.60;;
27127;SDS011;14660;49.008;8.390;2022-10-22T08:10:59;0.82;;;0.50;;
27127;SDS011;14660;49.008;8.390;2022-10-22T08:13:27;4.43;;;0.65;;
27127;SDS011;14660;49.008;8.390;2022-10-22T08:16:00;2.38;;;1.27;;
27127;SDS011;14660;49.008;8.390;2022-10-22T08:18:27;1.48;;;1.02;;
27127;SDS011;14660;49.008;8.390;2022-10-22T08:20:54;1.85;;;0.80;;
27127;SDS011;14660;49.008;8.390;2022-10-22T08:23:21;1.20;;;0.73;;
27127;SDS011;14660;49.008;8.390;2022-10-22T08:25:48;1.35;;;0.75;;
27127;SDS011;14660;49.008;8.390;2022-10-22T08:28:14;3.13;;;0.50;;
27127;SDS011;14660;49.008;8.390;2022-10-22T08:30:42;1.88;;;0.90;;
27127;SDS011;14660;49.008;8.390;2022-10-22T08:33:11;1.55;;;0.52;;
27127;SDS011;14660;49.008;8.390;2022-10-22T08:35:38;1.23;;;0.50;;
27127;SDS011;14660;49.008;8.390;2022-10-22T08:38:05;1.70;;;0.80;;
27127;SDS011;14660;49.008;8.390;2022-10-22T08:40:31;3.25;;;0.98;;
27127;SDS011;14660;49.008;8.390;2022-10-22T08:43:13;1.58;;;1.08;;
27127;SDS011;14660;49.008;8.390;2022-10-22T08:49:03;2.17;;;0.60;;
27127;SDS011;14660;49.008;8.390;2022-10-22T08:51:34;1.65;;;0.90;;
27127;SDS011;14660;49.008;8.390;2022-10-22T08:59:51;1.88;;;0.75;;
27127;SDS011;14660;49.008;8.390;2022-10-22T09:02:29;1.52;;;0.70;;
27127;SDS011;14660;49.008;8.390;2022-10-22T09:08:16;2.80;;;0.65;;
27127;SDS011;14660;49.008;8.390;2022-10-22T09:10:57;3.08;;;0.90;;
27127;SDS011;14660;49.008;8.390;2022-10-22T09:13:45;1.17;;;0.73;;
27127;SDS011;14660;49.008;8.390;2022-10-22T09:25:30;1.23;;;0.60;;
27127;SDS011;14660;49.008;8.390;2022-10-22T09:28:02;2.22;;;1.00;;
27127;SDS011;14660;49.008;8.390;2022-10-22T09:30:30;1.50;;;0.52;;
27127;SDS011;14660;49.008;8.390;2022-10-22T09:36:05;1.10;;;0.65;;
27127;SDS011;14660;49.008;8.390;2022-10-22T09:38:39;2.75;;;0.70;;
27127;SDS011;14660;49.008;8.390;2022-10-22T09:41:11;2.15;;;0.40;;
27127;SDS011;14660;49.008;8.390;2022-10-22T09:43:57;1.42;;;0.50;;
27127;SDS011;14660;49.008;8.390;2022-10-22T09:46:29;1.27;;;0.52;;
27127;SDS011;14660;49.008;8.390;2022-10-22T09:49:12;1.20;;;0.52;;
27127;SDS011;14660;49.008;8.390;2022-10-22T09:57:19;1.33;;;0.98;;
27127;SDS011;14660;49.008;8.390;2022-10-22T09:59:50;2.55;;;0.77;;
27127;SDS011;14660;49.008;8.390;2022-10-22T10:05:16;0.98;;;0.65;;
27127;SDS011;14660;49.008;8.390;2022-10-22T10:07:44;1.20;;;0.73;;
27127;SDS011;14660;49.008;8.390;2022-10-22T10:10:33;2.67;;;0.80;;
27127;SDS011;14660;49.008;8.390;2022-10-22T10:37:39;0.47;;;0.40;;
27127;SDS011;14660;49.008;8.390;2022-10-22T10:40:20;2.35;;;0.82;;
27127;SDS011;14660;49.008;8.390;2022-10-22T10:43:06;0.85;;;0.50;;
27127;SDS011;14660;49.008;8.390;2022-10-22T10:54:54;3.05;;;0.70;;
27127;SDS011;14660;49.008;8.390;2022-10-22T10:57:30;1.33;;;0.73;;
27127;SDS011;14660;49.008;8.390;2022-10-22T11:00:18;1.88;;;0.63;;
27127;SDS011;14660;49.008;8.390;2022-10-22T11:05:57;3.13;;;0.52;;
27127;SDS011;14660;49.008;8.390;2022-10-22T11:17:26;2.73;;;0.83;;
27127;SDS011;14660;49.008;8.390;2022-10-22T11:25:46;0.70;;;0.50;;
27127;SDS011;14660;49.008;8.390;2022-10-22T11:31:10;2.58;;;0.90;;
27127;SDS011;14660;49.008;8.390;2022-10-22T11:33:52;0.95;;;0.70;;
27127;SDS011;14660;49.008;8.390;2022-10-22T11:36:41;2.83;;;0.60;;
27127;SDS011;14660;49.008;8.390;2022-10-22T11:39:37;1.73;;;0.70;;
27127;SDS011;14660;49.008;8.390;2022-10-22T11:42:22;1.48;;;0.68;;
27127;SDS011;14660;49.008;8.390;2022-10-22T11:53:56;1.20;;;0.85;;
27127;SDS011;14660;49.008;8.390;2022-10-22T11:56:28;2.78;;;1.02;;
27127;SDS011;14660;49.008;8.390;2022-10-22T11:59:03;1.52;;;0.93;;
27127;SDS011;14660;49.008;8.390;2022-10-22T12:02:00;1.88;;;0.70;;
27127;SDS011;14660;49.008;8.390;2022-10-22T12:04:47;2.30;;;0.77;;
27127;SDS011;14660;49.008;8.390;2022-10-22T12:10:03;3.17;;;0.70;;
27127;SDS011;14660;49.008;8.390;2022-10-22T12:12:42;2.45;;;0.93;;
27127;SDS011;14660;49.008;8.390;2022-10-22T12:15:20;1.42;;;0.70;;
27127;SDS011;14660;49.008;8.390;2022-10-22T12:18:02;5.15;;;0.88;;
27127;SDS011;14660;49.008;8.390;2022-10-22T12:20:31;3.38;;;1.20;;
27127;SDS011;14660;49.008;8.390;2022-10-22T12:22:58;2.30;;;0.70;;
27127;SDS011;14660;49.008;8.390;2022-10-22T12:25:30;5.00;;;0.70;;
27127;SDS011;14660;49.008;8.390;2022-10-22T12:27:58;2.88;;;1.15;;
27127;SDS011;14660;49.008;8.390;2022-10-22T12:30:27;4.00;;;0.60;;
27127;SDS011;14660;49.008;8.390;2022-10-22T12:32:58;1.70;;;0.93;;
27127;SDS011;14660;49.008;8.390;2022-10-22T12:35:27;2.78;;;0.70;;
27127;SDS011;14660;49.008;8.390;2022-10-22T12:40:54;3.55;;;1.30;;
27127;SDS011;14660;49.008;8.390;2022-10-22T12:46:13;2.70;;;0.55;;
27127;SDS011;14660;49.008;8.390;2022-10-22T12:48:43;3.13;;;1.17;;
27127;SDS011;14660;49.008;8.390;2022-10-22T12:51:13;6.25;;;1.00;;
27127;SDS011;14660;49.008;8.390;2022-10-22T12:53:50;2.83;;;0.60;;
27127;SDS011;14660;49.008;8.390;2022-10-22T12:56:23;3.95;;;1.67;;
27127;SDS011;14660;49.008;8.390;2022-10-22T12:58:52;3.22;;;0.90;;
27127;SDS011;14660;49.008;8.390;2022-10-22T13:01:23;1.60;;;0.65;;
27127;SDS011;14660;49.008;8.390;2022-10-22T13:12:50;2.45;;;0.60;;
27127;SDS011;14660;49.008;8.390;2022-10-22T13:18:16;2.65;;;0.68;;
27127;SDS011;14660;49.008;8.390;2022-10-22T13:21:03;1.83;;;0.63;;
27127;SDS011;14660;49.008;8.390;2022-10-22T13:23:32;3.72;;;1.10;;
27127;SDS011;14660;49.008;8.390;2022-10-22T13:26:15;2.10;;;1.00;;
27127;SDS011;14660;49.008;8.390;2022-10-22T13:28:50;3.58;;;0.95;;
27127;SDS011;14660;49.008;8.390;2022-10-22T13:31:20;2.45;;;1.73;;
27127;SDS011;14660;49.008;8.390;2022-10-22T13:34:06;3.92;;;0.85;;
27127;SDS011;14660;49.008;8.390;2022-10-22T13:36:39;1.75;;;0.65;;
27127;SDS011;14660;49.008;8.390;2022-10-22T13:39:11;2.30;;;0.68;;
27127;SDS011;14660;49.008;8.390;2022-10-22T13:41:59;2.13;;;0.80;;
27127;SDS011;14660;49.008;8.390;2022-10-22T13:44:25;3.70;;;1.20;;
27127;SDS011;14660;49.008;8.390;2022-10-22T13:46:51;1.55;;;0.68;;
27127;SDS011;14660;49.008;8.390;2022-10-22T13:49:19;5.72;;;1.40;;
27127;SDS011;14660;49.008;8.390;2022-10-22T13:51:48;3.03;;;0.98;;
27127;SDS011;14660;49.008;8.390;2022-10-22T13:54:17;1.15;;;0.65;;
27127;SDS011;14660;49.008;8.390;2022-10-22T13:56:48;2.92;;;1.05;;
27127;SDS011;14660;49.008;8.390;2022-10-22T13:59:15;3.15;;;0.73;;
27127;SDS011;14660;49.008;8.390;2022-10-22T14:01:42;3.28;;;1.00;;
27127;SDS011;14660;49.008;8.390;2022-10-22T14:04:21;2.78;;;0.40;;
27127;SDS011;14660;49.008;8.390;2022-10-22T14:06:59;4.03;;;0.88;;
27127;SDS011;14660;49.008;8.390;2022-10-22T14:09:25;2.28;;;1.02;;
27127;SDS011;14660;49.008;8.390;2022-10-22T14:11:52;3.53;;;0.75;;
27127;SDS011;14660;49.008;8.390;2022-10-22T14:14:18;1.60;;;0.52;;
27127;SDS011;14660;49.008;8.390;2022-10-22T14:16:45;2.50;;;1.10;;
27127;SDS011;14660;49.008;8.390;2022-10-22T14:19:15;3.03;;;0.98;;
27127;SDS011;14660;49.008;8.390;2022-10-22T14:21:43;0.82;;;0.28;;
27127;SDS011;14660;49.008;8.390;2022-10-22T14:24:10;3.65;;;0.95;;
27127;SDS011;14660;49.008;8.390;2022-10-22T14:26:37;3.08;;;0.88;;
27127;SDS011;14660;49.008;8.390;2022-10-22T14:29:02;1.90;;;0.70;;
27127;SDS011;14660;49.008;8.390;2022-10-22T14:31:29;2.85;;;0.65;;
27127;SDS011;14660;49.008;8.390;2022-10-22T14:33:58;2.40;;;0.55;;
27127;SDS011;14660;49.008;8.390;2022-10-22T14:36:25;2.03;;;0.70;;
27127;SDS011;14660;49.008;8.390;2022-10-22T14:38:52;2.47;;;0.93;;
27127;SDS011;14660;49.008;8.390;2022-10-22T14:41:23;2.10;;;0.80;;
27127;SDS011;14660;49.008;8.390;2022-10-22T14:43:53;1.60;;;0.80;;
27127;SDS011;14660;49.008;8.390;2022-10-22T14:46:21;2.28;;;0.95;;
27127;SDS011;14660;49.008;8.390;2022-10-22T14:48:48;3.78;;;0.90;;
27127;SDS011;14660;49.008;8.390;2022-10-22T14:51:18;1.30;;;0.80;;
27127;SDS011;14660;49.008;8.390;2022-10-22T14:53:46;3.40;;;1.95;;
27127;SDS011;14660;49.008;8.390;2022-10-22T14:56:24;3.65;;;0.82;;
27127;SDS011;14660;49.008;8.390;2022-10-22T14:58:51;3.33;;;1.50;;
27127;SDS011;14660;49.008;8.390;2022-10-22T15:01:17;3.42;;;1.20;;
27127;SDS011;14660;49.008;8.390;2022-10-22T15:03:45;2.10;;;1.00;;
27127;SDS011;14660;49.008;8.390;2022-10-22T15:06:11;2.90;;;0.85;;
27127;SDS011;14660;49.008;8.390;2022-10-22T15:08:38;2.83;;;1.40;;
27127;SDS011;14660;49.008;8.390;2022-10-22T15:11:08;1.52;;;0.68;;
27127;SDS011;14660;49.008;8.390;2022-10-22T15:13:36;1.67;;;0.80;;
27127;SDS011;14660;49.008;8.390;2022-10-22T15:16:06;2.55;;;1.00;;
27127;SDS011;14660;49.008;8.390;2022-10-22T15:18:34;2.38;;;0.73;;
27127;SDS011;14660;49.008;8.390;2022-10-22T15:21:02;2.30;;;0.93;;
27127;SDS011;14660;49.008;8.390;2022-10-22T15:23:32;3.47;;;1.05;;
27127;SDS011;14660;49.008;8.390;2022-10-22T15:26:10;3.58;;;1.02;;
27127;SDS011;14660;49.008;8.390;2022-10-22T15:28:40;2.05;;;0.60;;
27127;SDS011;14660;49.008;8.390;2022-10-22T15:33:39;3.20;;;1.10;;
27127;SDS011;14660;49.008;8.390;2022-10-22T15:36:11;3.38;;;1.33;;
27127;SDS011;14660;49.008;8.390;2022-10-22T15:41:08;2.03;;;1.17;;
27127;SDS011;14660;49.008;8.390;2022-10-22T15:43:37;2.20;;;1.40;;
27127;SDS011;14660;49.008;8.390;2022-10-22T15:46:16;5.38;;;1.00;;
27127;SDS011;14660;49.008;8.390;2022-10-22T15:48:44;3.75;;;1.48;;
27127;SDS011;14660;49.008;8.390;2022-10-22T15:51:14;3.45;;;1.48;;
27127;SDS011;14660;49.008;8.390;2022-10-22T15:53:42;1.88;;;1.13;;
27127;SDS011;14660;49.008;8.390;2022-10-22T15:56:22;4.78;;;1.70;;
27127;SDS011;14660;49.008;8.390;2022-10-22T15:58:54;2.30;;;1.40;;
27127;SDS011;14660;49.008;8.390;2022-10-22T16:01:24;2.63;;;1.25;;
27127;SDS011;14660;49.008;8.390;2022-10-22T16:03:53;3.88;;;1.75;;
27127;SDS011;14660;49.008;8.390;2022-10-22T16:06:26;3.35;;;1.60;;
27127;SDS011;14660;49.008;8.390;2022-10-22T16:08:58;3.53;;;1.63;;
27127;SDS011;14660;49.008;8.390;2022-10-22T16:11:30;2.65;;;1.52;;
27127;SDS011;14660;49.008;8.390;2022-10-22T16:13:58;2.80;;;1.63;;
27127;SDS011;14660;49.008;8.390;2022-10-22T16:16:31;4.07;;;1.65;;
27127;SDS011;14660;49.008;8.390;2022-10-22T16:18:59;3.97;;;1.52;;
27127;SDS011;14660;49.008;8.390;2022-10-22T16:21:26;3.08;;;1.98;;
27127;SDS011;14660;49.008;8.390;2022-10-22T16:23:54;4.03;;;2.15;;
27127;SDS011;14660;49.008;8.390;2022-10-22T16:26:22;4.43;;;2.53;;
27127;SDS011;14660;49.008;8.390;2022-10-22T16:28:48;4.80;;;2.05;;
27127;SDS011;14660;49.008;8.390;2022-10-22T16:31:19;4.43;;;2.55;;
27127;SDS011;14660;49.008;8.390;2022-10-22T16:33:47;5.13;;;2.40;;
27127;SDS011;14660;49.008;8.390;2022-10-22T16:36:14;4.50;;;2.40;;
27127;SDS011;14660;49.008;8.390;2022-10-22T16:38:50;5.68;;;2.38;;
27127;SDS011;14660;49.008;8.390;2022-10-22T16:41:20;6.10;;;2.75;;
27127;SDS011;14660;49.008;8.390;2022-10-22T16:43:50;8.43;;;3.55;;
27127;SDS011;14660;49.008;8.390;2022-10-22T16:46:20;27.52;;;16.90;;
27127;SDS011;14660;49.008;8.390;2022-10-22T16:48:49;28.35;;;16.83;;
27127;SDS011;14660;49.008;8.390;2022-10-22T16:51:19;16.08;;;9.57;;
27127;SDS011;14660;49.008;8.390;2022-10-22T16:53:49;18.30;;;10.93;;
27127;SDS011;14660;49.008;8.390;2022-10-22T16:56:18;27.63;;;18.60;;
27127;SDS011;14660;49.008;8.390;2022-10-22T16:58:50;14.57;;;8.70;;
27127;SDS011;14660;49.008;8.390;2022-10-22T17:01:21;13.57;;;6.88;;
27127;SDS011;14660;49.008;8.390;2022-10-22T17:04:09;15.65;;;7.90;;
27127;SDS011;14660;49.008;8.390;2022-10-22T17:06:36;9.15;;;5.30;;
27127;SDS011;14660;49.008;8.390;2022-10-22T17:09:03;10.38;;;5.05;;
27127;SDS011;14660;49.008;8.390;2022-10-22T17:11:30;7.25;;;3.75;;
27127;SDS011;14660;49.008;8.390;2022-10-22T17:14:00;4.97;;;2.88;;
27127;SDS011;14660;49.008;8.390;2022-10-22T17:16:29;6.93;;;2.83;;
27127;SDS011;14660;49.008;8.390;2022-10-22T17:18:55;12.85;;;4.07;;
27127;SDS011;14660;49.008;8.390;2022-10-22T17:21:23;5.95;;;3.00;;
27127;SDS011;14660;49.008;8.390;2022-10-22T17:23:56;6.93;;;3.88;;
27127;SDS011;14660;49.008;8.390;2022-10-22T17:28:50;8.30;;;3.72;;
27127;SDS011;14660;49.008;8.390;2022-10-22T17:34:04;5.50;;;3.60;;
27127;SDS011;14660;49.008;8.390;2022-10-22T17:39:04;11.38;;;7.45;;
27127;SDS011;14660;49.008;8.390;2022-10-22T17:41:34;15.73;;;8.52;;
27127;SDS011;14660;49.008;8.390;2022-10-22T17:44:04;12.70;;;7.50;;
27127;SDS011;14660;49.008;8.390;2022-10-22T17:46:39;15.93;;;8.77;;
27127;SDS011;14660;49.008;8.390;2022-10-22T17:49:11;14.75;;;6.50;;
27127;SDS011;14660;49.008;8.390;2022-10-22T17:51:44;15.43;;;7.55;;
27127;SDS011;14660;49.008;8.390;2022-10-22T17:54:11;16.00;;;8.10;;
27127;SDS011;14660;49.008;8.390;2022-10-22T17:56:37;15.70;;;9.40;;
27127;SDS011;14660;49.008;8.390;2022-10-22T17:59:06;14.15;;;8.48;;
27127;SDS011;14660;49.008;8.390;2022-10-22T18:01:48;10.68;;;6.43;;
27127;SDS011;14660;49.008;8.390;2022-10-22T18:04:16;14.82;;;8.38;;